Crestview, FL (32539)

9:02 PM CDT on July 31, 2015 (GMT -0500)
Patton Street | | Change Station
CLOSE
Current Station
Personal Weather Station
Location: Crestview, FL
Elevation: 249 ft
Nearby Weather Stations

Elev 249 ft 30.77 °N, 86.56 °W | Updated 13 minutes ago

Overcast
Overcast
76.5 °F
Feels Like 76 °F
N
0.0
Wind Variable Wind from ENE

Today
High -- | Low -- °F
--% Chance of Precip.
Yesterday
High -- | Low -- °F
Precip. -- in
6:03 AM 7:41 PM
Waxing Gibbous, 99% visible
Pressure 29.89 in
Visibility 10.0 miles
Clouds Mostly Cloudy 4600 ft
Mostly Cloudy 6000 ft
Heat Index 76 °F
Dew Point 76 °F
Humidity 97%
Rainfall 1.34 in
Snow Depth Not available.
UV 0 out of 12
Pollen 3.30 out of 12
Air Quality Not available.
Flu Activity Not available.
METAR KCEW 010153Z AUTO 00000KT 10SM BKN046 BKN060 26/24 A2990 RMK AO2 LTG DSNT NE SLP122 T02560244

More Conditions Fewer Conditions

Pressure 29.89 in
Visibility 10.0 miles
Clouds Mostly Cloudy 4600 ft
Mostly Cloudy 6000 ft
Heat Index 76 °F
Dew Point 76 °F
Humidity 97%
Rainfall 1.34 in
Snow Depth Not available.
UV 0 out of 12
Pollen 3.30 out of 12
Air Quality Not available.
Flu Activity Not available.
METAR KCEW 010153Z AUTO 00000KT 10SM BKN046 BKN060 26/24 A2990 RMK AO2 LTG DSNT NE SLP122 T02560244

More Conditions Fewer Conditions

10-Day Weather Forecast

×

Almanac

Astronomy

Jul. 31, 2015 Rise Set
Actual Time
Civil Twilight
Nautical Twilight
Astronomical Twilight
Moon
Length of Visible Light
Length of Day
Tomorrow will be .
, % of the Moon is Illuminated

Today's Extremes

State Highs State Lows

Community

WunderPhotos

Upload Photos

1,842,801 photos uploaded!

WunderBlogs® & News

Nearby

Air Quality

  Air Quality AQ Index Pollutant
Not available.

Snow Depth

Station Depth Elevation

Earthquake Activity

City Distance Mag. Time & Date
Minimum magnitude displayed is 2.5.

Coastal Water Temperatures

Place Temperature

Stations

Nearby Weather Stations

Station Location Temp. Windchill Dew Point Humidity Wind Precip. Elev Updated Type